createdAt,value
2022-08-19T00:00:36.889Z,18.03
2022-08-19T00:01:37.998Z,18.04
2022-08-19T00:02:37.521Z,17.99
2022-08-19T00:03:38.793Z,18.00
2022-08-19T00:04:38.203Z,18.03
2022-08-19T00:05:38.379Z,18.07
2022-08-19T00:06:38.670Z,18.00
2022-08-19T00:07:38.963Z,18.00
2022-08-19T00:08:39.267Z,18.00
2022-08-19T00:09:39.592Z,18.00
2022-08-19T00:10:39.905Z,17.94
2022-08-19T00:11:40.183Z,17.97
2022-08-19T00:12:43.920Z,17.97
2022-08-19T00:13:41.783Z,17.97
2022-08-19T00:14:40.998Z,17.84
2022-08-19T00:15:42.002Z,17.88
2022-08-19T00:16:41.576Z,17.82
2022-08-19T00:17:41.998Z,17.82
2022-08-19T00:18:42.193Z,17.87
2022-08-19T00:19:42.497Z,17.91
2022-08-19T00:20:42.800Z,17.91
2022-08-19T00:21:43.108Z,17.92
2022-08-19T00:22:43.407Z,17.94
2022-08-19T00:23:43.695Z,17.94
2022-08-19T00:24:43.999Z,17.91
2022-08-19T00:25:45.266Z,17.92
2022-08-19T00:26:44.616Z,17.92
2022-08-19T00:27:44.926Z,17.95
2022-08-19T00:28:45.218Z,17.97
2022-08-19T00:29:45.518Z,17.99
2022-08-19T00:30:45.837Z,18.03
2022-08-19T00:31:46.159Z,18.00
2022-08-19T00:32:46.522Z,17.88
2022-08-19T00:33:46.777Z,17.88
2022-08-19T00:34:47.090Z,17.89
2022-08-19T00:35:47.373Z,17.82
2022-08-19T00:36:48.655Z,17.84
2022-08-19T00:37:47.991Z,17.88
2022-08-19T00:38:48.292Z,17.88
2022-08-19T00:39:49.220Z,17.92
2022-08-19T00:40:48.902Z,17.94
2022-08-19T00:41:49.185Z,17.97
2022-08-19T00:42:49.480Z,17.97
2022-08-19T00:43:49.767Z,17.97
2022-08-19T00:44:50.069Z,17.95
2022-08-19T00:45:50.401Z,17.97
2022-08-19T00:46:55.237Z,17.97
2022-08-19T00:47:51.956Z,17.99
2022-08-19T00:48:51.331Z,17.97
2022-08-19T00:49:51.672Z,17.91
2022-08-19T00:50:52.457Z,17.88
2022-08-19T00:51:52.261Z,17.88
2022-08-19T00:52:52.758Z,17.88
2022-08-19T02:56:29.384Z,17.84
2022-08-19T02:57:29.702Z,17.91
2022-08-19T02:58:30.004Z,17.92
2022-08-19T02:59:30.314Z,17.92
2022-08-19T03:00:30.613Z,17.92
2022-08-19T03:01:30.922Z,17.94
2022-08-19T03:02:31.174Z,17.94
2022-08-19T03:03:31.479Z,17.92
2022-08-19T03:04:31.776Z,17.95
2022-08-19T03:05:48.282Z,17.94
2022-08-19T03:06:33.331Z,17.94
2022-08-19T03:07:32.692Z,17.97
2022-08-19T03:08:32.976Z,17.95
2022-08-19T03:09:33.270Z,17.95
2022-08-19T03:10:33.558Z,17.97
2022-08-19T03:11:33.856Z,17.97
2022-08-19T03:12:34.135Z,17.97
2022-08-19T03:13:34.422Z,17.99
2022-08-19T03:14:34.762Z,17.99
2022-08-19T03:15:35.055Z,17.97
2022-08-19T03:16:35.345Z,17.97
2022-08-19T03:17:35.612Z,17.99
2022-08-19T03:18:35.901Z,17.99
2022-08-19T03:19:36.204Z,17.97
2022-08-19T03:20:36.513Z,18.00
2022-08-19T03:21:36.811Z,18.00
2022-08-19T03:22:37.095Z,18.02
2022-08-19T03:23:37.374Z,18.03
2022-08-19T03:24:37.662Z,18.02
2022-08-19T03:25:37.955Z,18.02
2022-08-19T03:26:38.229Z,18.02
2022-08-19T03:27:38.529Z,18.03
2022-08-19T03:28:38.856Z,18.00
2022-08-19T03:29:43.853Z,18.03
2022-08-19T03:30:40.436Z,18.02
2022-08-19T03:31:44.856Z,18.02
2022-08-19T03:32:45.318Z,18.00
2022-08-19T03:33:41.251Z,18.00
2022-08-19T03:34:40.623Z,18.02
2022-08-19T03:35:40.921Z,18.00
2022-08-19T03:36:41.194Z,18.00
2022-08-19T03:37:41.458Z,17.97
2022-08-19T03:38:41.716Z,17.99
2022-08-19T03:39:42.071Z,17.97
2022-08-19T03:40:42.252Z,17.97
2022-08-19T03:41:45.011Z,17.97
2022-08-19T03:42:48.982Z,17.99
2022-08-19T03:43:44.121Z,17.99
2022-08-19T03:44:43.482Z,18.02
2022-08-19T03:45:43.751Z,18.02
2022-08-19T03:46:44.607Z,18.04
2022-08-19T03:47:44.283Z,18.06
2022-08-19T03:48:44.557Z,18.06
2022-08-19T03:49:44.848Z,18.04
2022-08-19T03:50:45.157Z,18.07
2022-08-19T03:51:45.450Z,18.07
2022-08-19T03:52:45.749Z,18.09
2022-08-19T03:53:45.967Z,18.09
2022-08-19T03:54:46.276Z,18.09
2022-08-19T03:55:46.585Z,18.10
2022-08-19T03:56:46.873Z,18.10
2022-08-19T03:57:47.156Z,18.12
2022-08-19T03:58:47.430Z,18.10
2022-08-19T03:59:47.755Z,18.12
2022-08-19T04:00:48.049Z,18.12
2022-08-19T04:01:48.355Z,18.12
2022-08-19T04:02:58.138Z,18.13
2022-08-19T04:03:49.880Z,18.15
2022-08-19T04:04:49.271Z,18.15
2022-08-19T04:05:49.544Z,18.18
2022-08-19T04:06:49.820Z,18.18
2022-08-19T04:07:50.106Z,18.15
2022-08-19T04:08:50.410Z,18.15
2022-08-19T04:09:50.719Z,18.12
2022-08-19T04:10:51.002Z,18.10
2022-08-19T04:11:51.305Z,18.12
2022-08-19T04:12:51.786Z,18.13
2022-08-19T04:13:51.823Z,18.13
2022-08-19T04:14:52.121Z,18.12
2022-08-19T04:15:52.410Z,18.10
2022-08-19T04:16:52.665Z,18.07
2022-08-19T04:17:52.956Z,18.06
2022-08-19T04:18:53.235Z,18.04
2022-08-19T04:19:53.548Z,18.06
2022-08-19T04:20:53.828Z,18.04
2022-08-19T04:21:54.080Z,18.03
2022-08-19T04:22:54.507Z,18.03
2022-08-19T04:23:54.667Z,18.06
2022-08-19T04:24:54.940Z,18.04
2022-08-19T04:25:55.198Z,18.03
2022-08-19T04:26:55.487Z,18.04
2022-08-19T04:27:55.780Z,18.02
2022-08-19T04:28:56.114Z,17.97
2022-08-19T04:29:56.276Z,17.99
2022-08-19T04:30:56.566Z,17.99
2022-08-19T04:31:56.873Z,18.02
2022-08-19T04:32:57.166Z,18.03
2022-08-19T04:33:57.472Z,18.04
2022-08-19T04:35:02.039Z,18.04
2022-08-19T04:35:59.020Z,18.03
2022-08-19T04:36:58.256Z,18.03
2022-08-19T04:37:58.540Z,18.04
2022-08-19T04:38:58.817Z,18.04
2022-08-19T04:40:02.436Z,18.06
2022-08-19T04:40:59.431Z,18.09
2022-08-19T04:41:59.718Z,18.07
2022-08-19T04:43:00.023Z,18.06
2022-08-19T04:44:04.258Z,18.04
2022-08-19T04:45:00.586Z,18.06
2022-08-19T04:46:01.320Z,18.06
2022-08-19T04:47:01.444Z,18.06
2022-08-19T04:48:19.614Z,18.07
2022-08-19T04:49:10.632Z,18.06
2022-08-19T04:50:03.054Z,18.07
2022-08-19T04:51:02.281Z,18.06
2022-08-19T04:52:02.557Z,18.06
2022-08-19T04:53:02.861Z,18.06
2022-08-19T04:54:03.033Z,18.06
2022-08-19T04:55:03.327Z,18.07
2022-08-19T04:56:03.593Z,18.09
2022-08-19T04:57:03.868Z,18.09
2022-08-19T04:58:04.150Z,18.10
2022-08-19T04:59:04.414Z,18.10
2022-08-19T05:00:04.689Z,18.10
2022-08-19T05:01:05.031Z,18.13
2022-08-19T05:02:05.248Z,18.13
2022-08-19T05:03:07.800Z,18.12
2022-08-19T05:04:05.769Z,18.10
2022-08-19T05:05:06.028Z,18.12
2022-08-19T05:06:06.303Z,18.12
2022-08-19T05:07:06.553Z,18.10
2022-08-19T05:08:06.825Z,18.12
2022-08-19T05:09:07.109Z,18.09
2022-08-19T05:10:07.378Z,18.06
2022-08-19T05:11:07.650Z,18.04
2022-08-19T05:12:07.995Z,18.04
2022-08-19T05:13:08.248Z,18.04
2022-08-19T05:14:08.549Z,18.07
2022-08-19T05:15:08.824Z,18.07
2022-08-19T05:16:09.097Z,18.04
2022-08-19T05:17:26.746Z,18.06
2022-08-19T05:18:10.658Z,18.06
2022-08-19T05:19:09.884Z,18.04
2022-08-19T05:20:10.161Z,18.03
2022-08-19T05:21:10.455Z,18.04
2022-08-19T05:22:10.774Z,18.04
2022-08-19T05:23:20.486Z,18.06
2022-08-19T05:24:12.329Z,18.06
2022-08-19T05:25:13.371Z,18.06
2022-08-19T05:26:11.939Z,18.06
2022-08-19T05:27:12.989Z,18.06
2022-08-19T05:28:12.439Z,18.07
2022-08-19T05:29:12.718Z,18.09
2022-08-19T05:30:12.996Z,18.07
2022-08-19T05:31:13.304Z,18.07
2022-08-19T05:32:13.578Z,18.06
2022-08-19T05:33:13.852Z,18.07
2022-08-19T05:34:20.255Z,18.07
2022-08-19T05:35:15.401Z,18.10
2022-08-19T05:36:14.761Z,18.09
2022-08-19T05:37:15.041Z,18.07
2022-08-19T05:38:15.344Z,18.07
2022-08-19T05:39:15.618Z,18.09
2022-08-19T05:40:15.960Z,18.09
2022-08-19T05:41:16.175Z,18.09
2022-08-19T05:42:16.452Z,18.09
2022-08-19T05:43:16.743Z,18.10
2022-08-19T05:44:17.034Z,18.09
2022-08-19T05:45:17.307Z,18.10
2022-08-19T05:46:17.622Z,18.12
2022-08-19T05:47:17.889Z,18.10
2022-08-19T05:48:18.154Z,18.10
2022-08-19T05:49:18.442Z,18.09
2022-08-19T05:50:18.734Z,18.09
2022-08-19T05:51:19.030Z,18.12
2022-08-19T05:52:19.566Z,18.12
2022-08-19T05:53:20.634Z,18.12
2022-08-19T05:54:21.673Z,18.13
2022-08-19T05:55:20.173Z,18.15
2022-08-19T05:56:20.436Z,18.13
2022-08-19T05:57:21.552Z,18.13
2022-08-19T05:58:23.227Z,18.13
2022-08-19T05:59:22.249Z,18.13
2022-08-19T06:00:24.718Z,18.15
2022-08-19T06:01:21.767Z,18.18
2022-08-19T06:02:22.068Z,18.15
2022-08-19T06:03:22.359Z,18.17
2022-08-19T06:04:22.653Z,18.17
2022-08-19T06:05:23.012Z,18.17
2022-08-19T06:06:23.300Z,18.15
2022-08-19T06:07:23.641Z,18.17
2022-08-19T06:08:33.927Z,18.15
2022-08-19T06:09:25.093Z,18.17
2022-08-19T06:10:24.421Z,18.18
2022-08-19T06:11:24.735Z,18.15
2022-08-19T06:12:25.031Z,18.17
2022-08-19T06:13:25.305Z,18.17
2022-08-19T06:14:27.824Z,18.15
2022-08-19T06:15:25.796Z,18.12
2022-08-19T06:16:26.075Z,18.10
2022-08-19T06:17:26.353Z,18.10
2022-08-19T06:18:26.621Z,18.12
2022-08-19T06:19:26.915Z,18.07
2022-08-19T06:20:54.151Z,18.06
2022-08-19T06:21:28.475Z,18.06
2022-08-19T06:22:27.691Z,18.06
2022-08-19T06:23:27.973Z,18.09
2022-08-19T06:24:28.271Z,18.10
2022-08-19T06:25:30.538Z,18.07
2022-08-19T06:26:28.798Z,18.03
2022-08-19T06:27:29.056Z,18.03
2022-08-19T06:28:29.339Z,18.00
2022-08-19T06:29:29.623Z,18.03
2022-08-19T06:30:29.908Z,18.03
2022-08-19T06:31:30.180Z,18.04
2022-08-19T06:32:30.443Z,18.07
2022-08-19T06:33:30.732Z,18.04
2022-08-19T06:34:30.944Z,18.02
2022-08-19T06:35:31.263Z,17.94
2022-08-19T06:36:31.553Z,17.89
2022-08-19T06:37:31.871Z,17.91
2022-08-19T06:38:32.180Z,17.94
2022-08-19T06:39:32.517Z,17.95
2022-08-19T06:40:32.919Z,17.97
2022-08-19T06:41:33.120Z,18.00
2022-08-19T06:42:33.424Z,18.04
2022-08-19T06:43:33.691Z,18.04
2022-08-19T06:44:33.970Z,18.09
2022-08-19T06:45:35.750Z,18.10
2022-08-19T06:46:35.509Z,18.10
2022-08-19T06:47:34.868Z,18.13
2022-08-19T06:48:39.350Z,18.13
2022-08-19T06:49:36.406Z,18.13
2022-08-19T06:50:39.350Z,18.17
2022-08-19T06:51:35.978Z,18.17
2022-08-19T06:52:38.446Z,18.17
2022-08-19T06:53:36.457Z,18.17
2022-08-19T06:54:37.729Z,18.18
2022-08-19T06:55:38.006Z,18.15
2022-08-19T06:56:37.222Z,18.15
2022-08-19T06:57:37.519Z,18.17
2022-08-19T06:58:37.802Z,18.15
2022-08-19T06:59:38.051Z,18.15
2022-08-19T07:00:38.309Z,18.13
2022-08-19T07:01:38.595Z,18.12
2022-08-19T07:02:38.850Z,18.12
2022-08-19T07:03:39.745Z,18.12
2022-08-19T07:04:42.084Z,18.12
2022-08-19T07:05:39.778Z,18.13
2022-08-19T07:06:44.306Z,18.12
2022-08-19T07:07:40.409Z,18.12
2022-08-19T07:09:40.914Z,18.15
2022-08-19T07:10:42.753Z,18.15
2022-08-19T07:11:41.493Z,18.17
2022-08-19T07:12:43.746Z,18.18
2022-08-19T07:13:42.004Z,18.18
2022-08-19T07:14:42.234Z,18.18
2022-08-19T07:15:42.769Z,18.19
2022-08-19T07:16:43.191Z,18.19
2022-08-19T07:17:43.118Z,18.18
2022-08-19T07:18:43.830Z,18.18
2022-08-19T07:19:43.750Z,18.19
2022-08-19T07:20:44.069Z,18.22
2022-08-19T07:21:44.393Z,18.22
2022-08-19T07:22:44.651Z,18.25
2022-08-19T07:23:44.911Z,18.24
2022-08-19T07:24:51.264Z,18.24
2022-08-19T07:25:52.710Z,18.24
2022-08-19T07:26:46.697Z,18.25
2022-08-19T07:27:48.686Z,18.25
2022-08-19T07:28:51.517Z,18.27
2022-08-19T07:29:47.582Z,18.25
2022-08-19T07:30:47.942Z,18.27
2022-08-19T07:31:47.147Z,18.27
2022-08-19T07:32:47.422Z,18.27
2022-08-19T07:33:48.193Z,18.28
2022-08-19T07:34:48.007Z,18.29
2022-08-19T07:35:48.305Z,18.31
2022-08-19T07:36:48.598Z,18.29
2022-08-19T07:37:48.886Z,18.33
2022-08-19T07:38:49.206Z,18.34
2022-08-19T07:39:49.523Z,18.34
2022-08-19T07:40:49.828Z,18.33
2022-08-19T07:41:50.116Z,18.33
2022-08-19T07:42:50.394Z,18.31
2022-08-19T07:43:50.719Z,18.29
2022-08-19T07:44:51.236Z,18.29
2022-08-19T07:45:51.357Z,18.28
2022-08-19T07:46:53.251Z,18.31
2022-08-19T07:47:51.918Z,18.29
2022-08-19T07:48:52.207Z,18.28
2022-08-19T07:49:52.475Z,18.29
2022-08-19T07:50:52.732Z,18.29
2022-08-19T07:51:53.019Z,18.31
2022-08-19T07:52:53.343Z,18.33
2022-08-19T07:53:53.630Z,18.28
2022-08-19T07:54:53.925Z,18.31
2022-08-19T07:55:54.226Z,18.33
2022-08-19T07:56:54.500Z,18.31
2022-08-19T07:57:54.795Z,18.31
2022-08-19T07:59:55.652Z,18.33
2022-08-19T08:00:55.880Z,18.34
2022-08-19T08:01:56.013Z,18.36
2022-08-19T08:02:56.481Z,18.34
2022-08-19T08:03:56.494Z,18.34
2022-08-19T08:04:56.735Z,18.31
2022-08-19T08:05:57.023Z,18.33
2022-08-19T08:06:57.319Z,18.31
2022-08-19T08:07:57.601Z,18.33
2022-08-19T08:08:57.885Z,18.34
2022-08-19T08:09:58.251Z,18.36
2022-08-19T08:10:58.538Z,18.37
2022-08-19T08:12:01.892Z,18.39
2022-08-19T08:13:09.492Z,18.39
2022-08-19T08:14:04.534Z,18.39
2022-08-19T08:14:59.630Z,18.36
2022-08-19T08:15:59.914Z,18.37
2022-08-19T08:17:00.213Z,18.39
2022-08-19T08:18:00.517Z,18.40
2022-08-19T08:19:00.784Z,18.43
2022-08-19T08:20:02.863Z,18.44
2022-08-19T08:21:01.346Z,18.47
2022-08-19T08:22:01.635Z,18.49
2022-08-19T08:23:01.909Z,18.50
2022-08-19T08:24:02.229Z,18.50
2022-08-19T08:25:02.439Z,18.50
2022-08-19T08:26:02.723Z,18.49
2022-08-19T08:27:03.025Z,18.49
2022-08-19T08:28:04.288Z,18.49
2022-08-19T08:29:12.288Z,18.54
2022-08-19T08:30:04.866Z,18.52
2022-08-19T08:31:09.364Z,18.50
2022-08-19T08:32:14.214Z,18.50
2022-08-19T08:33:05.861Z,18.52
2022-08-19T08:34:05.094Z,18.54
2022-08-19T08:35:05.372Z,18.57
2022-08-19T08:36:05.672Z,18.55
2022-08-19T08:37:05.938Z,18.57
2022-08-19T08:38:06.241Z,18.55
2022-08-19T08:39:06.540Z,18.55
2022-08-19T08:40:08.994Z,18.54
2022-08-19T08:41:07.050Z,18.52
2022-08-19T08:42:10.260Z,18.52
2022-08-19T08:43:10.991Z,18.50
2022-08-19T08:44:08.764Z,18.49
2022-08-19T08:45:09.157Z,18.47
2022-08-19T08:46:10.252Z,18.49
2022-08-19T08:47:08.747Z,18.46
2022-08-19T08:48:22.436Z,18.42
2022-08-19T08:49:10.363Z,18.40
2022-08-19T08:50:09.569Z,18.40
2022-08-19T08:51:09.844Z,18.42
2022-08-19T08:52:10.108Z,18.42
2022-08-19T08:53:10.372Z,18.40
2022-08-19T08:54:10.655Z,18.40
2022-08-19T08:55:10.953Z,18.33
2022-08-19T08:56:11.242Z,18.31
2022-08-19T08:57:11.543Z,18.33
2022-08-19T08:58:11.819Z,18.34
2022-08-19T08:59:14.149Z,18.34
2022-08-19T09:00:15.310Z,18.36
2022-08-19T09:01:12.732Z,18.36
2022-08-19T09:02:12.930Z,18.36
2022-08-19T09:03:13.216Z,18.37
2022-08-19T09:04:13.541Z,18.37
2022-08-19T09:05:16.333Z,18.36
2022-08-19T09:06:15.921Z,18.36
2022-08-19T09:07:18.492Z,18.34
2022-08-19T09:08:15.691Z,18.33
2022-08-19T09:09:15.056Z,18.28
2022-08-19T09:10:15.310Z,18.27
2022-08-19T09:11:15.539Z,18.25
2022-08-19T09:12:16.839Z,18.27
2022-08-19T09:13:16.061Z,18.29
2022-08-19T09:14:40.828Z,18.29
2022-08-19T09:15:17.612Z,18.28
2022-08-19T09:16:16.821Z,18.28
2022-08-19T09:17:17.119Z,18.27
2022-08-19T09:18:19.511Z,18.28
2022-08-19T09:19:17.735Z,18.28
2022-08-19T09:20:18.109Z,18.28
2022-08-19T09:21:20.054Z,18.22
2022-08-19T09:22:23.610Z,18.17
2022-08-19T09:23:26.947Z,18.17
2022-08-19T09:24:20.293Z,18.18
2022-08-19T09:25:26.675Z,18.17
2022-08-19T09:26:20.778Z,18.18
2022-08-19T09:27:20.096Z,18.17
2022-08-19T09:28:22.453Z,18.12
2022-08-19T09:29:22.575Z,18.06
2022-08-19T09:30:21.034Z,18.04
2022-08-19T09:31:21.364Z,18.04
2022-08-19T09:32:26.253Z,18.02
2022-08-19T09:33:22.973Z,18.00
2022-08-19T09:34:22.404Z,17.99
2022-08-19T09:35:22.468Z,17.97
2022-08-19T09:36:34.555Z,17.95
2022-08-19T09:37:24.076Z,17.95
2022-08-19T09:38:23.317Z,17.97
2022-08-19T09:39:23.627Z,17.94
2022-08-19T09:40:24.816Z,17.94
2022-08-19T09:41:24.213Z,17.95
2022-08-19T09:42:30.501Z,17.94
2022-08-19T09:43:33.899Z,17.92
2022-08-19T09:44:26.006Z,17.94
2022-08-19T09:45:25.281Z,17.97
2022-08-19T09:46:25.620Z,17.95
2022-08-19T09:47:25.948Z,17.94
2022-08-19T09:48:26.253Z,17.92
2022-08-19T09:49:26.556Z,17.94
2022-08-19T09:50:26.864Z,17.95
2022-08-19T09:51:27.167Z,17.95
2022-08-19T09:52:32.636Z,17.99
2022-08-19T09:53:28.823Z,18.02
2022-08-19T09:54:28.083Z,18.03
2022-08-19T09:55:31.038Z,18.04
2022-08-19T09:56:30.517Z,18.06
2022-08-19T09:57:29.036Z,18.09
2022-08-19T09:58:29.333Z,18.07
2022-08-19T09:59:29.636Z,18.10
2022-08-19T10:00:29.902Z,18.10
2022-08-19T10:01:30.315Z,18.10
2022-08-19T10:02:30.533Z,18.12
2022-08-19T10:03:30.768Z,18.12
2022-08-19T10:04:31.059Z,18.12
2022-08-19T10:05:31.364Z,18.13
2022-08-19T10:06:46.321Z,18.13
2022-08-19T10:07:36.540Z,18.13
2022-08-19T10:08:32.224Z,18.12
2022-08-19T10:09:34.441Z,18.10
2022-08-19T10:10:32.790Z,18.09
2022-08-19T10:11:36.354Z,18.07
2022-08-19T10:12:34.405Z,18.07
2022-08-19T10:13:35.444Z,18.06
2022-08-19T10:14:33.983Z,18.06
2022-08-19T10:15:34.237Z,18.02
2022-08-19T10:16:39.535Z,18.03
2022-08-19T10:17:34.813Z,18.04
2022-08-19T10:18:35.175Z,18.02
2022-08-19T10:19:35.491Z,18.03
2022-08-19T10:20:35.795Z,18.03
2022-08-19T10:21:36.099Z,18.02
2022-08-19T10:22:36.437Z,18.02
2022-08-19T10:23:36.631Z,18.03
2022-08-19T10:24:36.914Z,18.02
2022-08-19T10:25:38.448Z,18.02
2022-08-19T10:26:37.536Z,18.03
2022-08-19T10:27:37.840Z,18.02
2022-08-19T10:28:38.093Z,18.02
2022-08-19T10:29:38.432Z,18.03
2022-08-19T10:30:39.723Z,18.00
2022-08-19T10:32:00.521Z,18.00
2022-08-19T10:32:40.235Z,18.02
2022-08-19T10:33:54.033Z,18.02
2022-08-19T10:34:48.497Z,18.02
2022-08-19T10:35:42.723Z,18.00
2022-08-19T10:36:47.362Z,18.00
2022-08-19T10:37:52.656Z,17.94
2022-08-19T10:38:47.521Z,17.94
2022-08-19T10:39:43.117Z,17.95
2022-08-19T10:40:41.555Z,17.97
2022-08-19T10:41:41.864Z,18.00
2022-08-19T10:42:42.208Z,18.00
2022-08-19T10:43:42.506Z,18.02
2022-08-19T10:44:42.810Z,17.97
2022-08-19T10:45:52.382Z,18.00
2022-08-19T10:46:48.883Z,17.97
2022-08-19T10:47:43.720Z,17.99
2022-08-19T10:48:43.904Z,18.00
2022-08-19T10:49:44.223Z,17.99
2022-08-19T10:50:44.531Z,18.00
2022-08-19T10:51:48.047Z,18.02
2022-08-19T10:52:49.760Z,18.03
2022-08-19T10:53:46.393Z,18.02
2022-08-19T10:54:45.684Z,18.03
2022-08-19T10:55:45.967Z,18.03
2022-08-19T10:56:46.221Z,18.03
2022-08-19T10:58:04.151Z,18.03
2022-08-19T10:58:47.855Z,18.04
2022-08-19T10:59:47.091Z,18.06
2022-08-19T11:00:47.476Z,18.04
2022-08-19T11:01:47.673Z,18.04
2022-08-19T11:02:47.932Z,18.07
2022-08-19T11:03:48.230Z,18.06
2022-08-19T11:04:48.528Z,18.03
2022-08-19T11:05:48.848Z,18.04
2022-08-19T11:06:49.203Z,18.02
2022-08-19T11:07:49.390Z,18.03
2022-08-19T11:08:51.527Z,18.04
2022-08-19T11:09:50.037Z,18.00
2022-08-19T11:10:50.650Z,17.95
2022-08-19T11:11:50.660Z,17.94
2022-08-19T11:12:50.963Z,17.97
2022-08-19T11:13:51.266Z,17.97
2022-08-19T11:14:51.558Z,17.95
2022-08-19T11:15:51.893Z,17.97
2022-08-19T11:16:52.203Z,17.99
2022-08-19T11:17:52.557Z,18.00
2022-08-19T11:18:52.748Z,17.99
2022-08-19T11:19:53.057Z,18.00
2022-08-19T11:20:53.417Z,18.02
2022-08-19T11:21:53.609Z,18.00
2022-08-19T11:22:53.874Z,17.99
2022-08-19T11:23:54.192Z,17.99
2022-08-19T11:24:54.499Z,17.97
2022-08-19T11:25:54.833Z,17.87
2022-08-19T11:26:55.057Z,17.84
2022-08-19T11:27:55.611Z,17.85
2022-08-19T11:28:55.620Z,17.91
2022-08-19T11:29:55.938Z,17.88
2022-08-19T11:30:56.240Z,17.85
2022-08-19T11:31:56.569Z,17.87
2022-08-19T11:32:56.873Z,17.88
2022-08-19T11:33:57.197Z,17.89
2022-08-19T11:34:57.506Z,17.89
2022-08-19T11:35:57.824Z,17.89
2022-08-19T11:36:58.158Z,17.84
2022-08-19T11:37:58.447Z,17.82
2022-08-19T11:38:58.735Z,17.88
2022-08-19T11:39:59.066Z,17.91
2022-08-19T11:40:59.377Z,17.91
2022-08-19T11:41:59.555Z,17.94
2022-08-19T11:42:59.857Z,17.91
2022-08-19T11:44:00.152Z,17.94
2022-08-19T11:45:00.472Z,17.94
2022-08-19T11:46:00.809Z,17.94
2022-08-19T11:47:08.833Z,17.91
2022-08-19T11:48:02.400Z,17.94
2022-08-19T11:49:01.690Z,17.94
2022-08-19T11:50:01.889Z,17.99
2022-08-19T11:51:02.231Z,18.00
2022-08-19T11:52:02.533Z,18.03
2022-08-19T11:53:02.825Z,18.04
2022-08-19T11:54:03.123Z,18.04
2022-08-19T11:55:03.432Z,18.00
2022-08-19T11:56:03.751Z,17.95
2022-08-19T11:57:03.940Z,18.00
2022-08-19T11:58:04.237Z,17.99
2022-08-19T11:59:04.545Z,18.00
2022-08-19T12:00:04.839Z,18.00
2022-08-19T12:01:05.179Z,18.02
2022-08-19T12:02:05.541Z,18.03
2022-08-19T12:03:05.724Z,18.07
2022-08-19T12:04:06.051Z,18.06
2022-08-19T12:05:11.544Z,18.07
2022-08-19T12:06:07.576Z,18.09
2022-08-19T12:07:06.853Z,18.09
2022-08-19T12:08:07.164Z,18.09
2022-08-19T12:09:07.460Z,18.10
2022-08-19T12:10:07.733Z,18.15
2022-08-19T12:11:08.023Z,18.13
2022-08-19T12:12:08.347Z,18.10
2022-08-19T12:13:08.658Z,18.12
2022-08-19T12:14:08.927Z,18.12
2022-08-19T12:15:10.204Z,18.15
2022-08-19T12:16:13.231Z,18.15
2022-08-19T12:17:09.737Z,18.15
2022-08-19T12:18:10.026Z,18.15
2022-08-19T12:19:10.339Z,18.15
2022-08-19T12:20:10.649Z,18.15
2022-08-19T12:21:10.957Z,18.15
2022-08-19T12:22:11.285Z,18.13
2022-08-19T12:23:11.579Z,18.17
2022-08-19T12:24:11.892Z,18.19
2022-08-19T12:25:12.182Z,18.21
2022-08-19T12:26:14.224Z,18.21
2022-08-19T12:27:13.125Z,18.21
2022-08-19T12:28:14.029Z,18.24
2022-08-19T12:29:13.306Z,18.24
2022-08-19T12:30:13.608Z,18.27
2022-08-19T12:31:13.927Z,18.27
2022-08-19T12:32:14.221Z,18.25
2022-08-19T12:33:14.529Z,18.29
2022-08-19T12:34:14.883Z,18.28
2022-08-19T12:35:15.202Z,18.28
2022-08-19T12:36:16.282Z,18.28
2022-08-19T12:37:15.763Z,18.29
2022-08-19T12:38:16.072Z,18.22
2022-08-19T12:39:16.385Z,18.21
2022-08-19T12:40:16.833Z,18.22
2022-08-19T12:41:17.064Z,18.22
2022-08-19T12:42:17.352Z,18.24
2022-08-19T12:43:17.644Z,18.22
2022-08-19T12:44:17.939Z,18.22
2022-08-19T12:45:18.243Z,18.24
2022-08-19T12:46:18.569Z,18.25
2022-08-19T12:47:19.634Z,18.25
2022-08-19T12:48:34.883Z,18.25
2022-08-19T12:49:29.710Z,18.24
2022-08-19T12:50:20.668Z,18.22
2022-08-19T12:51:19.964Z,18.24
2022-08-19T12:52:23.197Z,18.24
2022-08-19T12:53:21.313Z,18.25
2022-08-19T12:54:20.788Z,18.27
2022-08-19T12:55:21.054Z,18.25
2022-08-19T12:56:23.355Z,18.25
2022-08-19T12:57:31.731Z,18.17
2022-08-19T12:58:27.076Z,18.10
2022-08-19T12:59:22.191Z,18.12
2022-08-19T13:00:22.499Z,18.09
2022-08-19T13:01:23.500Z,18.12
2022-08-19T13:02:23.061Z,18.09
2022-08-19T13:03:23.356Z,18.09
2022-08-19T13:04:23.643Z,18.12
2022-08-19T13:05:24.006Z,18.15
2022-08-19T13:06:24.238Z,18.17
2022-08-19T13:07:24.418Z,18.17
2022-08-19T13:08:24.735Z,18.18
2022-08-19T13:09:25.092Z,18.10
2022-08-19T13:10:25.265Z,18.13
2022-08-19T13:11:25.532Z,18.12
2022-08-19T13:12:25.836Z,18.15
2022-08-19T13:13:26.165Z,18.18
2022-08-19T13:14:26.975Z,18.19
2022-08-19T13:15:26.826Z,18.21
2022-08-19T13:16:27.116Z,18.22
2022-08-19T13:17:27.439Z,18.25
2022-08-19T13:18:27.794Z,18.21
2022-08-19T13:19:27.996Z,18.17
2022-08-19T13:20:28.302Z,18.21
2022-08-19T13:21:28.603Z,18.22
2022-08-19T13:22:28.922Z,18.24
2022-08-19T13:23:29.209Z,18.28
2022-08-19T13:24:33.537Z,18.27
2022-08-19T13:25:29.743Z,18.22
2022-08-19T13:26:30.040Z,18.21
2022-08-19T13:27:30.343Z,18.24
2022-08-19T13:28:30.817Z,18.25
2022-08-19T13:29:30.972Z,18.25
2022-08-19T13:30:31.159Z,18.27
2022-08-19T13:31:32.301Z,18.27
2022-08-19T13:32:36.188Z,18.27
2022-08-19T13:33:32.069Z,18.28
2022-08-19T13:34:32.406Z,18.31
2022-08-19T13:35:32.733Z,18.33
2022-08-19T13:36:33.041Z,18.33
2022-08-19T13:37:33.341Z,18.31
2022-08-19T13:38:37.272Z,18.34
2022-08-19T13:39:34.033Z,18.36
2022-08-19T13:40:34.260Z,18.34
2022-08-19T13:41:34.503Z,18.40
2022-08-19T13:42:34.777Z,18.37
2022-08-19T13:43:35.083Z,18.37
2022-08-19T13:44:35.379Z,18.39
2022-08-19T13:45:39.532Z,18.40
2022-08-19T13:46:35.992Z,18.42
2022-08-19T13:47:36.295Z,18.44
2022-08-19T13:48:36.594Z,18.47
2022-08-19T13:49:36.895Z,18.46
2022-08-19T13:50:37.230Z,18.47
2022-08-19T13:51:37.542Z,18.46
2022-08-19T13:52:37.829Z,18.46
2022-08-19T13:53:38.107Z,18.47
2022-08-19T13:54:38.416Z,18.47
2022-08-19T13:55:38.748Z,18.49
2022-08-19T13:56:38.948Z,18.49
2022-08-19T13:57:39.261Z,18.47
2022-08-19T13:58:39.584Z,18.44
2022-08-19T13:59:39.877Z,18.40
2022-08-19T14:00:40.252Z,18.40
2022-08-19T14:01:40.446Z,18.40
2022-08-19T14:02:40.758Z,18.42
2022-08-19T14:03:41.107Z,18.39
2022-08-19T14:04:41.411Z,18.40
2022-08-19T14:05:41.705Z,18.40
2022-08-19T14:06:42.013Z,18.40
2022-08-19T14:07:42.326Z,18.42
2022-08-19T14:08:46.083Z,18.39
2022-08-19T14:09:42.914Z,18.34
2022-08-19T14:10:43.199Z,18.34
2022-08-19T14:11:43.516Z,18.36
2022-08-19T14:12:43.849Z,18.34
2022-08-19T14:13:44.154Z,18.34
2022-08-19T14:14:44.497Z,18.36
2022-08-19T14:15:44.730Z,18.36
2022-08-19T14:16:44.908Z,18.34
2022-08-19T14:17:45.230Z,18.36
2022-08-19T14:18:45.527Z,18.34
2022-08-19T14:19:48.093Z,18.34
2022-08-19T14:20:46.118Z,18.29
2022-08-19T14:21:46.436Z,18.28
2022-08-19T14:22:46.738Z,18.29
2022-08-19T14:23:47.970Z,18.29
2022-08-19T14:24:48.061Z,18.29
2022-08-19T14:25:47.631Z,18.29
2022-08-19T14:26:47.944Z,18.31
2022-08-19T14:27:48.314Z,18.31
2022-08-19T14:28:48.580Z,18.33
2022-08-19T14:29:48.870Z,18.29
2022-08-19T14:30:49.210Z,18.29
2022-08-19T14:31:49.392Z,18.29
2022-08-19T14:32:49.695Z,18.31
2022-08-19T14:33:49.984Z,18.29
2022-08-19T14:34:50.288Z,18.28
2022-08-19T14:35:50.632Z,18.29
2022-08-19T14:36:50.965Z,18.29
2022-08-19T14:37:51.269Z,18.25
2022-08-19T14:38:51.603Z,18.27
2022-08-19T14:39:51.953Z,18.28
2022-08-19T14:40:52.179Z,18.27
2022-08-19T14:41:52.438Z,18.28
2022-08-19T14:42:52.747Z,18.28
2022-08-19T14:43:53.067Z,18.28
2022-08-19T14:44:53.374Z,18.27
2022-08-19T14:45:53.683Z,18.28
2022-08-19T14:46:53.930Z,18.27
2022-08-19T14:47:54.382Z,18.24
2022-08-19T14:48:54.444Z,18.25
2022-08-19T14:49:54.767Z,18.27
2022-08-19T14:50:55.113Z,18.27
2022-08-19T14:51:55.370Z,18.28
2022-08-19T14:52:55.612Z,18.29
2022-08-19T14:53:55.879Z,18.29
2022-08-19T14:54:56.188Z,18.31
2022-08-19T14:55:56.440Z,18.31
2022-08-19T14:56:56.791Z,18.31
2022-08-19T14:57:57.113Z,18.27
2022-08-19T14:58:57.447Z,18.22
2022-08-19T14:59:57.640Z,18.24
2022-08-19T15:00:57.968Z,18.22